Time,TemperatureF,DewpointF,PressureIn,WindDirection,WindDirectionDegrees,WindSpeedMPH,WindSpeedGustMPH,Humidity,HourlyPrecipIn,Conditions,Clouds,dailyrainin,SoftwareType,DateUTC
2013-08-21 00:07:00,75.6,70.1,29.86,NE,45,0.0,-999.0,83,-99.99,,,0.00,Acu-Link.com,2013-08-21 05:07:00,
2013-08-21 00:22:00,75.4,69.9,29.86,SSW,202,0.0,-999.0,83,-99.99,,,0.00,Acu-Link.com,2013-08-21 05:22:00,
2013-08-21 00:37:00,75.2,70.0,29.86,SSE,157,0.0,-999.0,84,-99.99,,,0.00,Acu-Link.com,2013-08-21 05:37:00,
2013-08-21 00:52:00,74.8,70.0,29.85,ESE,112,1.7,-999.0,85,-99.99,,,0.00,Acu-Link.com,2013-08-21 05:52:00,
2013-08-21 01:07:00,74.7,69.9,29.86,ESE,112,0.0,-999.0,85,-99.99,,,0.00,Acu-Link.com,2013-08-21 06:07:00,
2013-08-21 01:22:00,74.3,69.5,29.86,SSE,157,0.0,-999.0,85,-99.99,,,0.00,Acu-Link.com,2013-08-21 06:22:00,
2013-08-21 01:37:00,73.9,69.4,29.86,ESE,112,0.0,-999.0,86,-99.99,,,0.00,Acu-Link.com,2013-08-21 06:37:00,
2013-08-21 01:52:00,73.6,69.1,29.86,ESE,112,0.0,-999.0,86,-99.99,,,0.00,Acu-Link.com,2013-08-21 06:52:00,
2013-08-21 02:08:00,73.6,69.5,29.86,ESE,112,0.0,-999.0,87,-99.99,,,0.00,Acu-Link.com,2013-08-21 07:08:00,
2013-08-21 02:23:00,73.4,69.6,29.85,SE,135,0.0,-999.0,88,-99.99,,,0.00,Acu-Link.com,2013-08-21 07:23:00,
2013-08-21 02:38:00,73.2,69.4,29.86,ESE,112,0.0,-999.0,88,-99.99,,,0.00,Acu-Link.com,2013-08-21 07:38:00,
2013-08-21 02:53:00,73.0,69.2,29.86,ESE,112,0.0,-999.0,88,-99.99,,,0.00,Acu-Link.com,2013-08-21 07:53:00,
2013-08-21 03:08:00,72.7,68.9,29.86,ESE,112,0.0,-999.0,88,-99.99,,,0.00,Acu-Link.com,2013-08-21 08:08:00,
2013-08-21 03:23:00,72.7,68.9,29.86,ESE,112,0.0,-999.0,88,-99.99,,,0.00,Acu-Link.com,2013-08-21 08:23:00,
2013-08-21 03:38:00,72.7,69.3,29.86,ESE,112,0.0,-999.0,89,-99.99,,,0.00,Acu-Link.com,2013-08-21 08:38:00,
2013-08-21 03:54:00,72.7,69.3,29.86,ESE,112,0.0,-999.0,89,-99.99,,,0.00,Acu-Link.com,2013-08-21 08:54:00,
2013-08-21 04:09:00,72.3,68.9,29.86,ESE,112,0.0,-999.0,89,-99.99,,,0.00,Acu-Link.com,2013-08-21 09:09:00,
2013-08-21 04:24:00,72.1,68.7,29.86,ESE,112,0.0,-999.0,89,-99.99,,,0.00,Acu-Link.com,2013-08-21 09:24:00,
2013-08-21 04:39:00,72.1,69.0,29.86,ESE,112,0.0,-999.0,90,-99.99,,,0.00,Acu-Link.com,2013-08-21 09:39:00,
2013-08-21 04:54:00,72.1,69.0,29.86,ESE,112,0.0,-999.0,90,-99.99,,,0.00,Acu-Link.com,2013-08-21 09:54:00,
2013-08-21 05:09:00,72.1,69.0,29.85,ESE,112,0.0,-999.0,90,-99.99,,,0.00,Acu-Link.com,2013-08-21 10:09:00,
2013-08-21 05:24:00,72.1,69.0,29.85,ESE,112,0.0,-999.0,90,-99.99,,,0.00,Acu-Link.com,2013-08-21 10:24:00,
2013-08-21 05:39:00,72.1,69.0,29.85,ESE,112,0.0,-999.0,90,-99.99,,,0.00,Acu-Link.com,2013-08-21 10:39:00,
2013-08-21 05:54:00,72.3,69.2,29.85,ESE,112,0.0,-999.0,90,-99.99,,,0.00,Acu-Link.com,2013-08-21 10:54:00,
2013-08-21 06:10:00,72.3,69.2,29.85,NE,45,0.0,-999.0,90,-99.99,,,0.00,Acu-Link.com,2013-08-21 11:10:00,
2013-08-21 06:25:00,72.5,69.7,29.86,SSE,157,0.0,-999.0,91,-99.99,,,0.00,Acu-Link.com,2013-08-21 11:25:00,
2013-08-21 06:40:00,72.5,69.7,29.86,SSW,202,0.0,-999.0,91,-99.99,,,0.00,Acu-Link.com,2013-08-21 11:40:00,
2013-08-21 06:55:00,72.7,69.9,29.86,SSE,157,0.0,-999.0,91,-99.99,,,0.00,Acu-Link.com,2013-08-21 11:55:00,
2013-08-21 07:10:00,72.9,70.1,29.87,WNW,292,0.0,-999.0,91,-99.99,,,0.00,Acu-Link.com,2013-08-21 12:10:00,
2013-08-21 07:25:00,73.9,71.1,29.88,West,270,0.0,-999.0,91,-99.99,,,0.00,Acu-Link.com,2013-08-21 12:25:00,
2013-08-21 07:40:00,75.4,72.9,29.88,West,270,0.0,-999.0,92,-99.99,,,0.00,Acu-Link.com,2013-08-21 12:40:00,
2013-08-21 07:55:00,78.4,75.9,29.88,ENE,67,0.0,-999.0,92,-99.99,,,0.00,Acu-Link.com,2013-08-21 12:55:00,
2013-08-21 08:10:00,81.1,75.8,29.89,East,90,0.0,-999.0,84,-99.99,,,0.00,Acu-Link.com,2013-08-21 13:10:00,
2013-08-21 08:26:00,84.9,76.5,29.90,East,90,2.7,-999.0,76,-99.99,,,0.00,Acu-Link.com,2013-08-21 13:26:00,
2013-08-21 08:41:00,88.5,77.9,29.90,East,90,1.7,-999.0,71,-99.99,,,0.00,Acu-Link.com,2013-08-21 13:41:00,
2013-08-21 08:56:00,84.6,75.8,29.90,East,90,3.2,-999.0,75,-99.99,,,0.00,Acu-Link.com,2013-08-21 13:56:00,
2013-08-21 09:11:00,86.0,76.7,29.90,ESE,112,2.7,-999.0,74,-99.99,,,0.00,Acu-Link.com,2013-08-21 14:11:00,
2013-08-21 09:26:00,86.9,76.8,29.90,SSE,157,1.7,-999.0,72,-99.99,,,0.00,Acu-Link.com,2013-08-21 14:26:00,
2013-08-21 09:41:00,87.3,76.7,29.90,NE,45,2.7,-999.0,71,-99.99,,,0.00,Acu-Link.com,2013-08-21 14:41:00,
2013-08-21 09:56:00,87.6,76.6,29.90,NNE,22,1.7,-999.0,70,-99.99,,,0.00,Acu-Link.com,2013-08-21 14:56:00,
2013-08-21 10:11:00,88.7,76.7,29.91,ESE,112,3.2,-999.0,68,-99.99,,,0.00,Acu-Link.com,2013-08-21 15:11:00,
2013-08-21 10:26:00,88.2,75.4,29.91,ENE,67,2.7,-999.0,66,-99.99,,,0.00,Acu-Link.com,2013-08-21 15:26:00,
2013-08-21 10:42:00,88.5,75.2,29.91,NE,45,2.2,-999.0,65,-99.99,,,0.00,Acu-Link.com,2013-08-21 15:42:00,
2013-08-21 10:57:00,88.9,74.6,29.91,East,90,2.7,-999.0,63,-99.99,,,0.00,Acu-Link.com,2013-08-21 15:57:00,
2013-08-21 11:12:00,90.7,75.4,29.91,NW,315,1.1,-999.0,61,-99.99,,,0.00,Acu-Link.com,2013-08-21 16:12:00,
2013-08-21 11:27:00,91.4,74.5,29.90,ENE,67,2.2,-999.0,58,-99.99,,,0.00,Acu-Link.com,2013-08-21 16:27:00,
2013-08-21 11:42:00,92.5,73.9,29.90,South,180,6.8,-999.0,55,-99.99,,,0.00,Acu-Link.com,2013-08-21 16:42:00,
2013-08-21 11:57:00,93.6,73.8,29.90,ESE,112,7.3,-999.0,53,-99.99,,,0.00,Acu-Link.com,2013-08-21 16:57:00,
2013-08-21 12:12:00,92.1,73.6,29.90,East,90,4.2,-999.0,55,-99.99,,,0.00,Acu-Link.com,2013-08-21 17:12:00,
2013-08-21 12:27:00,94.6,72.4,29.88,SSE,157,2.2,-999.0,49,-99.99,,,0.00,Acu-Link.com,2013-08-21 17:27:00,
2013-08-21 12:42:00,94.8,72.6,29.87,SSE,157,2.7,-999.0,49,-99.99,,,0.00,Acu-Link.com,2013-08-21 17:42:00,
2013-08-21 12:58:00,94.5,72.3,29.87,NNW,337,3.2,-999.0,49,-99.99,,,0.00,Acu-Link.com,2013-08-21 17:58:00,
2013-08-21 13:13:00,93.9,71.8,29.87,ESE,112,3.2,-999.0,49,-99.99,,,0.00,Acu-Link.com,2013-08-21 18:13:00,
2013-08-21 13:28:00,96.8,72.6,29.87,SSE,157,2.2,-999.0,46,-99.99,,,0.00,Acu-Link.com,2013-08-21 18:28:00,
2013-08-21 13:43:00,97.2,72.9,29.86,WSW,247,3.7,-999.0,46,-99.99,,,0.00,Acu-Link.com,2013-08-21 18:43:00,
2013-08-21 13:58:00,95.5,72.6,29.86,NE,45,6.8,-999.0,48,-99.99,,,0.00,Acu-Link.com,2013-08-21 18:58:00,
2013-08-21 14:13:00,93.7,71.6,29.86,ESE,112,2.7,-999.0,49,-99.99,,,0.00,Acu-Link.com,2013-08-21 19:13:00,
2013-08-21 14:28:00,92.1,71.3,29.87,ESE,112,3.2,-999.0,51,-99.99,,,0.00,Acu-Link.com,2013-08-21 19:28:00,
2013-08-21 14:43:00,93.6,71.5,29.85,ENE,67,3.2,-999.0,49,-99.99,,,0.00,Acu-Link.com,2013-08-21 19:43:00,
2013-08-21 14:58:00,94.1,72.6,29.84,SE,135,4.2,-999.0,50,-99.99,,,0.00,Acu-Link.com,2013-08-21 19:58:00,
2013-08-21 15:14:00,94.1,72.6,29.84,SSW,202,4.2,-999.0,50,-99.99,,,0.00,Acu-Link.com,2013-08-21 20:14:00,
2013-08-21 15:29:00,92.1,71.3,29.84,ENE,67,6.3,-999.0,51,-99.99,,,0.00,Acu-Link.com,2013-08-21 20:29:00,
2013-08-21 15:44:00,91.0,70.9,29.85,WSW,247,9.9,-999.0,52,-99.99,,,0.00,Acu-Link.com,2013-08-21 20:44:00,
2013-08-21 15:59:00,90.0,71.6,29.84,West,270,7.8,-999.0,55,-99.99,,,0.00,Acu-Link.com,2013-08-21 20:59:00,
2013-08-21 16:14:00,88.7,72.0,29.83,South,180,7.3,-999.0,58,-99.99,,,0.00,Acu-Link.com,2013-08-21 21:14:00,
2013-08-21 16:29:00,88.5,72.3,29.84,ENE,67,3.7,-999.0,59,-99.99,,,0.00,Acu-Link.com,2013-08-21 21:29:00,
2013-08-21 16:44:00,88.2,73.0,29.83,SSW,202,5.3,-999.0,61,-99.99,,,0.00,Acu-Link.com,2013-08-21 21:44:00,
2013-08-21 16:59:00,87.6,72.9,29.84,NNW,337,7.3,-999.0,62,-99.99,,,0.00,Acu-Link.com,2013-08-21 21:59:00,
2013-08-21 17:14:00,89.1,73.9,29.83,ESE,112,4.7,-999.0,61,-99.99,,,0.00,Acu-Link.com,2013-08-21 22:14:00,
2013-08-21 17:30:00,88.7,73.5,29.83,West,270,6.8,-999.0,61,-99.99,,,0.00,Acu-Link.com,2013-08-21 22:30:00,
2013-08-21 17:45:00,89.4,74.1,29.83,SSW,202,5.8,-999.0,61,-99.99,,,0.00,Acu-Link.com,2013-08-21 22:45:00,
2013-08-21 18:00:00,89.4,74.6,29.83,ENE,67,3.2,-999.0,62,-99.99,,,0.00,Acu-Link.com,2013-08-21 23:00:00,
2013-08-21 18:15:00,90.3,74.5,29.83,SSW,202,8.3,-999.0,60,-99.99,,,0.00,Acu-Link.com,2013-08-21 23:15:00,
2013-08-21 18:30:00,90.1,74.8,29.83,ESE,112,4.7,-999.0,61,-99.99,,,0.00,Acu-Link.com,2013-08-21 23:30:00,
2013-08-21 18:45:00,89.4,74.6,29.82,SE,135,3.2,-999.0,62,-99.99,,,0.00,Acu-Link.com,2013-08-21 23:45:00,
2013-08-21 19:01:00,90.3,75.5,29.83,SW,225,4.2,-999.0,62,-99.99,,,0.00,Acu-Link.com,2013-08-22 00:01:00,
2013-08-21 19:16:00,87.6,74.3,29.83,SSE,157,5.3,-999.0,65,-99.99,,,0.00,Acu-Link.com,2013-08-22 00:16:00,
2013-08-21 19:31:00,86.5,73.8,29.83,South,180,4.2,-999.0,66,-99.99,,,0.00,Acu-Link.com,2013-08-22 00:31:00,
2013-08-21 19:46:00,85.5,73.7,29.83,South,180,5.3,-999.0,68,-99.99,,,0.00,Acu-Link.com,2013-08-22 00:46:00,
2013-08-21 20:01:00,84.7,73.4,29.84,South,180,4.2,-999.0,69,-99.99,,,0.00,Acu-Link.com,2013-08-22 01:01:00,
2013-08-21 20:16:00,84.2,73.8,29.85,SW,225,0.0,-999.0,71,-99.99,,,0.00,Acu-Link.com,2013-08-22 01:16:00,
2013-08-21 20:31:00,83.5,73.5,29.86,SW,225,1.7,-999.0,72,-99.99,,,0.00,Acu-Link.com,2013-08-22 01:31:00,
2013-08-21 20:46:00,82.9,73.3,29.85,West,270,3.7,-999.0,73,-99.99,,,0.00,Acu-Link.com,2013-08-22 01:46:00,
2013-08-21 21:01:00,82.4,73.7,29.85,ESE,112,1.7,-999.0,75,-99.99,,,0.00,Acu-Link.com,2013-08-22 02:01:00,
2013-08-21 21:17:00,82.0,73.3,29.85,ENE,67,1.1,-999.0,75,-99.99,,,0.00,Acu-Link.com,2013-08-22 02:17:00,
2013-08-21 21:32:00,81.5,73.6,29.86,ESE,112,0.0,-999.0,77,-99.99,,,0.00,Acu-Link.com,2013-08-22 02:32:00,
2013-08-21 21:47:00,81.0,73.5,29.86,ESE,112,0.0,-999.0,78,-99.99,,,0.00,Acu-Link.com,2013-08-22 02:47:00,
2013-08-21 22:02:00,80.6,73.5,29.87,SSE,157,0.0,-999.0,79,-99.99,,,0.00,Acu-Link.com,2013-08-22 03:02:00,
2013-08-21 22:17:00,79.9,73.2,29.86,ESE,112,0.0,-999.0,80,-99.99,,,0.00,Acu-Link.com,2013-08-22 03:17:00,
2013-08-21 22:32:00,79.3,72.9,29.87,SW,225,0.0,-999.0,81,-99.99,,,0.00,Acu-Link.com,2013-08-22 03:32:00,
2013-08-21 22:47:00,78.6,72.6,29.87,South,180,0.0,-999.0,82,-99.99,,,0.00,Acu-Link.com,2013-08-22 03:47:00,
2013-08-21 23:02:00,78.4,72.8,29.87,ESE,112,0.0,-999.0,83,-99.99,,,0.00,Acu-Link.com,2013-08-22 04:02:00,
2013-08-21 23:17:00,77.9,72.7,29.87,SW,225,0.0,-999.0,84,-99.99,,,0.00,Acu-Link.com,2013-08-22 04:17:00,
2013-08-21 23:32:00,77.5,72.3,29.87,ESE,112,0.0,-999.0,84,-99.99,,,0.00,Acu-Link.com,2013-08-22 04:32:00,
2013-08-21 23:48:00,77.2,72.3,29.88,ESE,112,0.0,-999.0,85,-99.99,,,0.00,Acu-Link.com,2013-08-22 04:48:00,